Time;durP1;ratioP1;P1;durP2;ratioP2;P2;SDS_P1;SDS_P2;PMS_P1;PMS_P2;Temp;Humidity;BMP_temperature;BMP_pressure;BME280_temperature;BME280_humidity;BME280_pressure;Samples;Min_cycle;Max_cycle;Signal;HPM_P1;HPM_P2
2021/08/30 00:01:29;;;;;;;20.58;14.93;;;14.50;99.90;;;;;;4952002;28;20086;-59
2021/08/30 00:03:55;;;;;;;24.58;16.00;;;14.50;99.90;;;;;;4954491;28;20394;-59
2021/08/30 00:06:20;;;;;;;24.60;16.05;;;14.40;99.90;;;;;;4944818;28;20066;-60
2021/08/30 00:08:46;;;;;;;28.52;17.27;;;14.40;99.90;;;;;;4953995;28;20107;-60
2021/08/30 00:11:12;;;;;;;26.23;17.42;;;14.40;99.90;;;;;;4953734;28;20067;-59
2021/08/30 00:13:37;;;;;;;27.30;16.80;;;14.30;99.90;;;;;;4952750;28;20463;-57
2021/08/30 00:16:03;;;;;;;39.08;18.83;;;14.30;99.90;;;;;;4943808;28;20110;-58
2021/08/30 00:18:29;;;;;;;32.05;19.25;;;14.30;99.90;;;;;;4953606;28;20054;-59
2021/08/30 00:20:54;;;;;;;34.13;19.45;;;14.40;99.90;;;;;;4949518;28;20098;-59
2021/08/30 00:23:20;;;;;;;32.63;19.42;;;14.40;99.90;;;;;;4952407;28;20098;-59
2021/08/30 00:25:46;;;;;;;28.33;18.70;;;14.40;99.90;;;;;;4952074;28;20106;-58
2021/08/30 00:28:11;;;;;;;32.38;19.73;;;14.50;99.90;;;;;;4954166;28;20535;-57
2021/08/30 00:30:37;;;;;;;30.45;17.85;;;14.50;99.90;;;;;;4950978;28;20062;-59
2021/08/30 00:33:03;;;;;;;27.88;18.00;;;14.60;99.90;;;;;;4953927;28;20041;-59
2021/08/30 00:35:28;;;;;;;32.17;18.73;;;14.60;99.90;;;;;;4952019;28;20019;-56
2021/08/30 00:37:54;;;;;;;23.27;15.68;;;14.60;99.90;;;;;;4951770;28;20084;-60
2021/08/30 00:40:20;;;;;;;23.90;16.00;;;14.60;99.90;;;;;;4951810;28;20409;-59
2021/08/30 00:42:45;;;;;;;24.95;17.02;;;14.70;99.90;;;;;;4952148;28;20106;-57
2021/08/30 00:45:12;;;;;;;29.75;15.98;;;14.70;99.90;;;;;;4953431;28;20039;-59
2021/08/30 00:47:43;;;;;;;27.27;16.13;;;14.70;99.90;;;;;;4953624;28;20031;-59
2021/08/30 00:50:12;;;;;;;27.98;15.88;;;14.70;99.90;;;;;;4947565;28;20429;-59
2021/08/30 00:52:39;;;;;;;25.73;16.23;;;14.70;99.90;;;;;;4949215;28;20030;-59
2021/08/30 00:55:06;;;;;;;26.73;16.15;;;14.60;99.90;;;;;;4950523;28;20055;-57
2021/08/30 00:57:32;;;;;;;25.30;16.45;;;14.70;99.90;;;;;;4952709;28;20039;-59
2021/08/30 00:59:57;;;;;;;25.75;18.70;;;14.70;99.90;;;;;;4950464;28;20035;-58
2021/08/30 01:02:23;;;;;;;26.63;18.33;;;14.70;99.90;;;;;;4950656;28;20103;-58
2021/08/30 01:04:49;;;;;;;27.85;19.15;;;14.80;99.90;;;;;;4953410;28;20043;-57
2021/08/30 01:07:36;;;;;;;29.63;21.10;;;14.80;99.90;;;;;;4936346;29;20035;-58
2021/08/30 01:10:04;;;;;;;27.83;20.00;;;14.80;99.90;;;;;;4942889;28;20046;-58
2021/08/30 01:12:38;;;;;;;28.88;19.70;;;14.80;99.90;;;;;;4951499;28;20033;-59
2021/08/30 01:15:16;;;;;;;30.13;19.30;;;14.90;99.90;;;;;;4953483;28;20039;-58
2021/08/30 01:17:44;;;;;;;37.90;20.13;;;14.90;99.90;;;;;;4951318;28;20023;-60
2021/08/30 01:20:27;;;;;;;30.88;21.67;;;14.90;99.90;;;;;;4952285;28;20058;-59
2021/08/30 01:22:57;;;;;;;29.77;22.52;;;15.00;99.90;;;;;;4945306;28;20480;-57
2021/08/30 01:25:25;;;;;;;30.50;22.00;;;15.00;99.90;;;;;;4951560;28;20035;-59
2021/08/30 01:27:52;;;;;;;30.23;22.20;;;15.00;99.90;;;;;;4934548;28;20031;-61
2021/08/30 01:30:21;;;;;;;29.20;21.58;;;15.00;99.90;;;;;;4947485;28;20054;-59
2021/08/30 01:32:50;;;;;;;28.35;20.95;;;15.00;99.90;;;;;;4950715;28;20027;-57
2021/08/30 01:35:21;;;;;;;29.15;22.25;;;15.00;99.90;;;;;;5008694;23;20493;-55
2021/08/30 01:37:49;;;;;;;32.28;22.40;;;15.10;99.90;;;;;;5010293;28;20028;-57
2021/08/30 01:40:17;;;;;;;31.25;23.08;;;15.10;99.90;;;;;;5008972;28;20048;-55
2021/08/30 01:42:46;;;;;;;34.70;22.23;;;15.10;99.90;;;;;;5010625;28;20026;-55
2021/08/30 01:45:16;;;;;;;31.90;21.60;;;15.10;99.90;;;;;;5010740;28;20444;-59
2021/08/30 01:47:43;;;;;;;30.52;23.05;;;15.10;99.90;;;;;;5011338;28;20494;-56
2021/08/30 01:50:10;;;;;;;29.77;21.70;;;15.20;99.90;;;;;;5005987;28;20022;-57
2021/08/30 01:52:39;;;;;;;32.90;22.00;;;15.20;99.90;;;;;;5010365;28;20072;-59
2021/08/30 01:55:15;;;;;;;28.75;21.55;;;15.20;99.90;;;;;;5010218;28;20072;-55
2021/08/30 02:03:10;;;;;;;27.40;20.15;;;15.30;99.90;;;;;;5007105;28;20040;-62
2021/08/30 02:05:36;;;;;;;27.67;21.80;;;15.30;99.90;;;;;;5010954;28;20123;-58
2021/08/30 02:08:02;;;;;;;31.20;21.00;;;15.30;99.90;;;;;;5014397;28;20029;-58
2021/08/30 02:10:27;;;;;;;31.08;23.60;;;15.30;99.90;;;;;;5013407;28;20037;-57
2021/08/30 02:12:53;;;;;;;32.83;22.23;;;15.30;99.90;;;;;;5013745;28;20033;-56
2021/08/30 02:15:19;;;;;;;29.85;23.15;;;15.30;99.90;;;;;;5012613;28;20026;-53
2021/08/30 02:17:50;;;;;;;33.28;23.92;;;15.20;99.90;;;;;;5013781;28;20456;-59
2021/08/30 02:20:21;;;;;;;37.42;23.10;;;15.30;99.90;;;;;;5008659;28;20057;-56
2021/08/30 02:22:47;;;;;;;30.20;22.95;;;15.20;99.90;;;;;;5008145;28;20476;-60
2021/08/30 02:25:17;;;;;;;32.08;23.73;;;15.30;99.90;;;;;;5014484;28;20080;-59
2021/08/30 02:27:58;;;;;;;32.55;24.33;;;15.30;99.90;;;;;;4987801;28;20030;-59
2021/08/30 02:30:29;;;;;;;33.20;24.02;;;15.30;99.90;;;;;;5013565;28;20030;-56
2021/08/30 02:33:00;;;;;;;35.55;24.95;;;15.30;99.90;;;;;;5013114;28;20117;-58
2021/08/30 02:35:33;;;;;;;35.97;26.83;;;15.30;99.90;;;;;;5013448;28;20025;-58
2021/08/30 02:38:00;;;;;;;;;;;15.30;99.90;;;;;;5014749;28;20026;-57
2021/08/30 02:40:29;;;;;;;40.60;28.65;;;15.30;99.90;;;;;;5013485;28;20027;-60
2021/08/30 02:42:59;;;;;;;39.45;29.30;;;15.30;99.90;;;;;;5010822;28;20083;-58
2021/08/30 02:45:25;;;;;;;42.15;28.35;;;15.30;99.90;;;;;;5012739;28;20096;-55
2021/08/30 02:47:51;;;;;;;42.03;28.10;;;15.30;99.90;;;;;;5013524;28;20048;-60
2021/08/30 02:50:18;;;;;;;40.53;29.65;;;15.30;99.90;;;;;;5012813;28;20061;-59
2021/08/30 02:52:45;;;;;;;50.78;28.88;;;15.30;99.90;;;;;;5013457;28;20408;-59
2021/08/30 02:55:11;;;;;;;41.25;29.52;;;15.30;99.90;;;;;;5012251;28;20041;-56
2021/08/30 02:57:38;;;;;;;39.58;28.40;;;15.30;99.90;;;;;;5012035;28;20018;-59
2021/08/30 03:00:06;;;;;;;41.75;28.83;;;15.20;99.90;;;;;;5013099;28;20034;-58
2021/08/30 03:02:33;;;;;;;39.00;28.23;;;15.20;99.90;;;;;;5010118;28;20038;-58
2021/08/30 03:05:00;;;;;;;41.33;28.58;;;15.20;99.90;;;;;;5007358;28;20497;-59
2021/08/30 03:07:28;;;;;;;43.58;29.00;;;15.20;99.90;;;;;;5011082;28;20049;-56
2021/08/30 03:09:55;;;;;;;54.25;29.73;;;15.20;99.90;;;;;;5012030;28;20572;-55
2021/08/30 03:12:21;;;;;;;44.92;29.60;;;15.20;99.90;;;;;;5013225;28;20374;-56
2021/08/30 03:14:48;;;;;;;40.38;28.88;;;15.20;99.90;;;;;;4995482;28;20081;-58
2021/08/30 03:17:15;;;;;;;42.75;27.30;;;15.20;99.90;;;;;;5012629;28;20105;-59
2021/08/30 03:19:44;;;;;;;40.85;29.27;;;15.20;99.90;;;;;;5003867;28;20398;-56
2021/08/30 03:22:11;;;;;;;41.05;28.02;;;15.20;99.90;;;;;;5008836;28;20042;-56
2021/08/30 03:24:39;;;;;;;39.88;28.42;;;15.20;99.90;;;;;;5013249;28;20038;-57
2021/08/30 03:27:06;;;;;;;39.22;27.73;;;15.20;99.90;;;;;;5007086;28;20065;-57
2021/08/30 03:29:33;;;;;;;39.75;26.70;;;15.20;99.90;;;;;;5011096;28;20036;-57
2021/08/30 03:32:00;;;;;;;33.75;24.95;;;15.20;99.90;;;;;;5013283;28;20053;-58
2021/08/30 03:34:27;;;;;;;46.40;26.48;;;15.20;99.90;;;;;;5012071;28;20100;-58
2021/08/30 03:36:54;;;;;;;40.42;27.58;;;15.20;99.90;;;;;;5009678;28;20019;-55
2021/08/30 03:39:20;;;;;;;42.95;27.48;;;15.20;99.90;;;;;;5012350;28;20025;-53
2021/08/30 03:41:48;;;;;;;43.63;29.30;;;15.20;99.90;;;;;;5008326;28;20022;-57
2021/08/30 03:44:14;;;;;;;41.42;29.13;;;15.20;99.90;;;;;;5011077;28;20034;-55
2021/08/30 03:46:41;;;;;;;40.15;28.25;;;15.20;99.90;;;;;;5013034;28;20037;-57
2021/08/30 03:49:07;;;;;;;43.58;26.58;;;15.20;99.90;;;;;;5008396;28;20026;-59
2021/08/30 03:51:35;;;;;;;40.45;26.38;;;15.30;99.90;;;;;;5012080;28;20034;-56
2021/08/30 03:54:02;;;;;;;38.75;26.98;;;15.30;99.90;;;;;;5007512;28;20026;-59
2021/08/30 03:56:29;;;;;;;37.28;25.67;;;15.30;99.90;;;;;;5011358;28;20109;-58
2021/08/30 03:58:55;;;;;;;37.78;25.33;;;15.30;99.90;;;;;;5008518;28;20501;-56
2021/08/30 04:01:25;;;;;;;36.85;25.80;;;15.30;99.90;;;;;;5011135;28;20049;-57
2021/08/30 04:03:54;;;;;;;37.65;25.48;;;15.30;99.90;;;;;;5011599;28;20092;-55
2021/08/30 04:06:20;;;;;;;38.90;25.42;;;15.30;99.90;;;;;;5010724;28;20017;-55
2021/08/30 04:08:47;;;;;;;39.70;26.15;;;15.30;99.90;;;;;;5011918;28;20481;-58
2021/08/30 04:11:14;;;;;;;39.25;26.73;;;15.30;99.90;;;;;;5011872;28;20096;-59
2021/08/30 04:13:40;;;;;;;38.00;25.48;;;15.30;99.90;;;;;;5011923;28;20104;-58
2021/08/30 04:16:06;;;;;;;33.35;24.98;;;15.30;99.90;;;;;;5012393;28;20540;-59
2021/08/30 04:18:32;;;;;;;37.10;25.98;;;15.30;99.90;;;;;;5012244;28;20061;-58
2021/08/30 04:20:58;;;;;;;40.05;25.52;;;15.30;99.90;;;;;;5003271;28;20025;-59
2021/08/30 04:23:23;;;;;;;37.55;25.25;;;15.20;99.90;;;;;;5010826;28;20041;-59
2021/08/30 04:25:49;;;;;;;39.38;26.05;;;15.20;99.90;;;;;;5012301;28;20042;-58
2021/08/30 04:28:14;;;;;;;37.60;28.00;;;15.20;99.90;;;;;;5011639;28;20650;-59
2021/08/30 04:30:40;;;;;;;40.90;27.70;;;15.20;99.90;;;;;;5008937;28;20038;-59
2021/08/30 04:33:10;;;;;;;36.38;26.15;;;15.20;99.90;;;;;;5009729;28;20037;-59
2021/08/30 04:35:36;;;;;;;42.08;27.50;;;15.20;99.90;;;;;;5008616;28;20079;-58
2021/08/30 04:38:02;;;;;;;41.53;27.70;;;15.20;99.90;;;;;;5000796;28;20596;-59
2021/08/30 04:40:28;;;;;;;38.58;27.95;;;15.10;99.90;;;;;;5003544;28;20389;-57
2021/08/30 04:42:53;;;;;;;39.10;27.08;;;15.10;99.90;;;;;;5011231;28;20022;-57
2021/08/30 04:45:19;;;;;;;36.50;26.63;;;15.10;99.90;;;;;;5010350;28;20076;-58
2021/08/30 04:47:45;;;;;;;40.85;27.13;;;15.20;99.90;;;;;;5011213;28;20034;-56
2021/08/30 04:50:11;;;;;;;38.53;26.88;;;15.20;99.90;;;;;;5010787;28;20022;-58
2021/08/30 04:52:36;;;;;;;42.55;26.58;;;15.20;99.90;;;;;;5011499;28;20034;-57
2021/08/30 04:55:02;;;;;;;42.03;28.05;;;15.20;99.90;;;;;;5011238;28;20531;-58
2021/08/30 04:57:28;;;;;;;38.42;26.80;;;15.20;99.90;;;;;;5006195;28;20036;-59
2021/08/30 04:59:54;;;;;;;37.88;26.38;;;15.20;99.90;;;;;;5011541;28;20471;-57
2021/08/30 05:02:19;;;;;;;35.40;25.17;;;15.10;99.90;;;;;;5011430;28;20541;-54
2021/08/30 05:04:45;;;;;;;40.28;26.35;;;15.20;99.90;;;;;;5011915;28;20022;-57
2021/08/30 05:07:10;;;;;;;43.72;25.90;;;15.20;99.90;;;;;;5010285;28;20404;-58
2021/08/30 05:09:36;;;;;;;33.83;25.23;;;15.30;99.90;;;;;;5006843;28;20044;-58
2021/08/30 05:12:01;;;;;;;40.05;27.20;;;15.30;99.90;;;;;;5011382;28;20496;-55
2021/08/30 05:14:27;;;;;;;38.38;25.90;;;15.30;99.90;;;;;;5008278;28;20392;-52
2021/08/30 05:16:53;;;;;;;32.58;25.58;;;15.30;99.90;;;;;;5009629;28;20022;-58
2021/08/30 05:19:18;;;;;;;36.67;27.33;;;15.30;99.90;;;;;;5010260;28;20034;-59
2021/08/30 05:21:44;;;;;;;36.83;27.85;;;15.30;99.90;;;;;;5007919;28;20026;-58
2021/08/30 05:24:09;;;;;;;37.60;26.95;;;15.30;99.90;;;;;;5008780;28;20030;-55
2021/08/30 05:26:36;;;;;;;38.70;25.67;;;15.30;99.90;;;;;;5010366;28;20030;-57
2021/08/30 05:29:02;;;;;;;35.10;27.02;;;15.40;99.90;;;;;;5009679;28;20071;-57
2021/08/30 05:31:28;;;;;;;40.15;25.27;;;15.50;99.90;;;;;;5010832;28;20026;-58
2021/08/30 05:33:55;;;;;;;31.85;23.85;;;15.50;99.90;;;;;;5006661;28;20062;-57
2021/08/30 05:36:21;;;;;;;31.58;24.27;;;15.60;99.90;;;;;;5010012;28;20645;-57
2021/08/30 05:38:46;;;;;;;34.53;24.55;;;15.60;99.90;;;;;;5004614;28;20026;-55
2021/08/30 05:41:12;;;;;;;32.00;24.90;;;15.60;99.90;;;;;;5006198;28;20105;-57
2021/08/30 05:43:37;;;;;;;30.35;24.65;;;15.60;99.90;;;;;;5010734;28;20164;-58
2021/08/30 05:46:03;;;;;;;34.03;23.90;;;15.60;99.90;;;;;;5010850;28;20112;-56
2021/08/30 05:48:29;;;;;;;36.05;25.80;;;15.70;99.90;;;;;;4984305;28;20049;-57
2021/08/30 05:50:54;;;;;;;32.60;24.17;;;15.70;99.90;;;;;;5008668;28;20026;-58
2021/08/30 05:53:20;;;;;;;30.92;22.33;;;15.70;99.90;;;;;;5008576;28;20034;-57
2021/08/30 05:55:46;;;;;;;35.25;25.40;;;15.80;99.90;;;;;;5007280;28;20030;-59
2021/08/30 05:58:11;;;;;;;35.42;24.95;;;15.90;99.90;;;;;;5005721;28;20030;-57
2021/08/30 06:00:37;;;;;;;43.42;24.52;;;16.00;99.90;;;;;;5009244;28;20045;-58
2021/08/30 06:03:03;;;;;;;28.67;22.77;;;16.10;99.90;;;;;;5006229;28;20030;-59
2021/08/30 06:05:28;;;;;;;30.35;24.20;;;16.10;99.90;;;;;;5008573;28;20042;-60
2021/08/30 06:07:54;;;;;;;31.45;22.42;;;16.10;99.90;;;;;;5007043;28;20028;-58
2021/08/30 06:10:20;;;;;;;30.80;21.73;;;16.20;99.90;;;;;;5008517;28;20018;-59
2021/08/30 06:12:45;;;;;;;28.95;21.73;;;16.20;99.90;;;;;;5008944;28;20111;-58
2021/08/30 06:15:11;;;;;;;30.55;20.90;;;16.40;99.90;;;;;;5009310;28;20022;-56
2021/08/30 06:17:38;;;;;;;33.05;20.85;;;16.50;99.90;;;;;;5007913;28;20123;-59
2021/08/30 06:20:04;;;;;;;31.33;19.92;;;16.60;99.90;;;;;;5008450;28;20118;-57
2021/08/30 06:22:30;;;;;;;25.52;19.25;;;16.60;99.90;;;;;;5006878;28;20029;-59
2021/08/30 06:24:55;;;;;;;26.80;20.83;;;16.70;99.90;;;;;;5007451;28;20029;-58
2021/08/30 06:27:21;;;;;;;27.77;20.83;;;16.50;99.90;;;;;;5008082;28;20154;-53
2021/08/30 06:29:50;;;;;;;27.27;19.95;;;16.50;99.90;;;;;;5005629;28;20117;-58
2021/08/30 06:32:15;;;;;;;27.75;20.52;;;16.60;99.90;;;;;;5009994;28;20484;-57
2021/08/30 06:34:41;;;;;;;31.90;20.15;;;16.70;99.90;;;;;;5003811;28;20126;-58
2021/08/30 06:37:07;;;;;;;29.30;20.88;;;16.80;99.90;;;;;;5009361;28;20026;-56
2021/08/30 06:39:33;;;;;;;28.58;18.42;;;16.80;99.90;;;;;;5005566;28;20492;-60
2021/08/30 06:41:58;;;;;;;27.50;19.88;;;16.60;99.90;;;;;;5009571;28;20034;-56
2021/08/30 06:44:24;;;;;;;35.63;21.63;;;16.60;99.90;;;;;;5008896;28;20052;-57
2021/08/30 06:46:50;;;;;;;28.85;19.88;;;16.50;99.90;;;;;;5009689;28;20025;-58
2021/08/30 06:49:15;;;;;;;30.52;19.73;;;16.50;99.90;;;;;;4995169;28;20408;-57
2021/08/30 06:51:41;;;;;;;28.65;19.70;;;16.50;99.90;;;;;;5001838;28;20049;-59
2021/08/30 06:54:06;;;;;;;25.60;19.38;;;16.60;99.90;;;;;;5011056;28;20033;-55
2021/08/30 06:56:32;;;;;;;27.83;19.67;;;16.80;99.90;;;;;;5013431;28;20022;-59
2021/08/30 06:58:57;;;;;;;26.90;17.35;;;17.00;99.90;;;;;;5012173;28;20028;-59
2021/08/30 07:01:23;;;;;;;23.10;17.02;;;17.30;99.90;;;;;;5012343;28;20042;-53
2021/08/30 07:03:49;;;;;;;29.35;18.25;;;17.40;99.90;;;;;;5012329;28;20033;-58
2021/08/30 07:06:15;;;;;;;25.88;16.25;;;17.60;99.90;;;;;;5012205;28;20041;-59
2021/08/30 07:08:40;;;;;;;23.17;16.30;;;17.80;99.90;;;;;;4994832;28;20079;-59
2021/08/30 07:11:06;;;;;;;26.13;16.92;;;17.80;99.90;;;;;;5011872;28;20482;-57
2021/08/30 07:13:32;;;;;;;24.20;16.80;;;17.80;99.90;;;;;;5007672;28;20033;-60
2021/08/30 07:15:58;;;;;;;22.98;16.48;;;17.90;99.90;;;;;;5011462;28;20061;-59
2021/08/30 07:18:24;;;;;;;29.30;16.75;;;18.30;99.90;;;;;;5012195;28;20105;-58
2021/08/30 07:20:50;;;;;;;29.48;17.35;;;18.50;99.90;;;;;;5012623;28;20041;-60
2021/08/30 07:23:16;;;;;;;23.73;16.30;;;18.70;99.90;;;;;;5007403;28;20034;-58
2021/08/30 07:25:42;;;;;;;25.65;16.77;;;18.40;99.90;;;;;;5005364;28;20049;-59
2021/08/30 07:28:08;;;;;;;22.40;16.48;;;18.30;99.90;;;;;;5010530;28;20025;-58
2021/08/30 07:30:34;;;;;;;24.55;16.75;;;18.20;99.90;;;;;;5010779;28;20489;-58
2021/08/30 07:33:00;;;;;;;25.10;17.90;;;17.80;99.90;;;;;;5011965;28;20068;-58
2021/08/30 07:35:27;;;;;;;25.92;18.42;;;17.60;99.90;;;;;;5010014;28;20068;-55
2021/08/30 07:37:53;;;;;;;29.27;19.83;;;17.40;99.90;;;;;;5010541;28;20511;-57
2021/08/30 07:40:18;;;;;;;24.98;18.90;;;17.30;99.90;;;;;;5012206;28;20034;-57
2021/08/30 07:42:44;;;;;;;25.70;20.27;;;17.10;99.90;;;;;;5013151;28;20033;-54
2021/08/30 07:45:10;;;;;;;28.25;20.70;;;17.10;99.90;;;;;;5008518;28;20531;-59
2021/08/30 07:47:35;;;;;;;31.02;22.23;;;17.10;99.90;;;;;;5008318;28;20034;-58
2021/08/30 07:50:02;;;;;;;33.83;21.20;;;17.00;99.90;;;;;;5011614;28;20499;-59
2021/08/30 07:52:27;;;;;;;33.70;21.58;;;17.00;99.90;;;;;;4992074;28;20046;-59
2021/08/30 07:54:53;;;;;;;29.38;21.95;;;16.80;99.90;;;;;;5010164;28;20400;-58
2021/08/30 07:57:18;;;;;;;30.17;22.55;;;16.80;99.90;;;;;;5011637;28;20096;-57
2021/08/30 07:59:44;;;;;;;31.00;23.40;;;16.60;99.90;;;;;;5011075;28;20026;-58
2021/08/30 08:02:10;;;;;;;27.63;21.40;;;16.60;99.90;;;;;;5010897;28;20021;-59
2021/08/30 08:04:35;;;;;;;30.23;21.75;;;16.60;99.90;;;;;;5011624;28;20041;-56
2021/08/30 08:07:01;;;;;;;30.48;22.20;;;16.50;99.90;;;;;;4993891;28;20029;-57
2021/08/30 08:09:26;;;;;;;30.75;23.20;;;16.50;99.90;;;;;;5011147;28;20069;-56
2021/08/30 08:11:52;;;;;;;30.27;21.10;;;16.70;99.90;;;;;;5009640;28;20037;-60
2021/08/30 08:14:17;;;;;;;32.78;22.73;;;16.80;99.90;;;;;;5009665;28;20576;-56
2021/08/30 08:16:43;;;;;;;28.98;22.45;;;16.90;99.90;;;;;;5010079;28;20473;-58
2021/08/30 08:19:09;;;;;;;28.88;21.92;;;17.00;99.90;;;;;;5016002;28;20033;-59
2021/08/30 08:21:35;;;;;;;29.27;23.10;;;17.20;99.90;;;;;;5012175;28;20041;-60
2021/08/30 08:24:03;;;;;;;31.70;21.35;;;17.50;99.90;;;;;;5009044;28;20019;-60
2021/08/30 08:26:28;;;;;;;25.13;19.63;;;17.90;99.90;;;;;;5011740;28;20018;-56
2021/08/30 08:28:54;;;;;;;26.80;19.77;;;18.50;99.90;;;;;;5010626;28;20118;-54
2021/08/30 08:31:20;;;;;;;24.63;18.23;;;18.90;99.90;;;;;;5011127;28;20080;-57
2021/08/30 08:33:47;;;;;;;24.48;18.20;;;19.10;99.90;;;;;;5010938;28;20018;-56
2021/08/30 08:36:12;;;;;;;26.77;18.48;;;19.00;99.90;;;;;;5011525;28;20026;-59
2021/08/30 08:38:38;;;;;;;24.45;18.92;;;18.80;99.90;;;;;;5010961;28;20049;-56
2021/08/30 08:41:04;;;;;;;27.83;18.17;;;18.80;99.90;;;;;;5011150;28;20038;-60
2021/08/30 08:43:29;;;;;;;24.25;18.35;;;18.80;99.90;;;;;;5011016;28;20101;-56
2021/08/30 08:45:56;;;;;;;23.45;17.77;;;19.00;99.90;;;;;;5007353;28;20026;-61
2021/08/30 08:48:22;;;;;;;20.75;17.52;;;19.20;99.90;;;;;;5008785;28;20084;-61
2021/08/30 08:50:48;;;;;;;21.15;16.48;;;19.60;99.90;;;;;;4991335;28;20034;-60
2021/08/30 08:53:14;;;;;;;26.92;16.98;;;20.00;99.90;;;;;;5005714;28;20030;-58
2021/08/30 08:55:40;;;;;;;22.00;17.10;;;19.90;99.90;;;;;;5011036;28;20029;-59
2021/08/30 08:58:17;;;;;;;20.88;15.73;;;19.80;99.90;;;;;;5008630;28;20022;-58
2021/08/30 09:00:46;;;;;;;23.23;14.77;;;19.90;99.90;;;;;;5008879;28;20110;-58
2021/08/30 09:03:17;;;;;;;20.10;14.88;;;20.10;99.90;;;;;;5010566;28;20028;-56
2021/08/30 09:05:42;;;;;;;27.00;15.45;;;20.20;99.90;;;;;;5010973;28;20400;-56
2021/08/30 09:08:27;;;;;;;20.55;14.60;;;20.20;99.90;;;;;;5009985;28;20022;-53
2021/08/30 09:10:53;;;;;;;20.25;14.50;;;20.10;99.90;;;;;;5007784;28;20030;-58
2021/08/30 09:13:29;;;;;;;20.45;15.35;;;19.80;99.90;;;;;;5009372;28;20501;-55
2021/08/30 09:15:56;;;;;;;20.95;15.07;;;19.90;99.90;;;;;;5008511;28;20026;-58
2021/08/30 09:18:28;;;;;;;17.48;13.52;;;20.10;99.90;;;;;;5003182;28;20029;-56
2021/08/30 09:20:53;;;;;;;21.75;15.27;;;20.00;99.90;;;;;;5008868;28;20056;-56
2021/08/30 09:23:19;;;;;;;17.45;14.15;;;19.90;99.90;;;;;;5004798;28;20030;-60
2021/08/30 09:25:45;;;;;;;20.63;14.25;;;19.80;99.90;;;;;;5008649;28;20544;-59
2021/08/30 09:28:10;;;;;;;18.48;13.75;;;19.90;99.90;;;;;;5009132;28;20109;-59
2021/08/30 09:30:36;;;;;;;17.88;14.43;;;19.80;99.90;;;;;;5009773;28;20038;-59
2021/08/30 09:33:02;;;;;;;24.67;14.65;;;19.50;99.90;;;;;;5009273;28;20026;-60
2021/08/30 09:35:28;;;;;;;22.67;15.32;;;19.20;99.90;;;;;;5008946;28;20026;-58
2021/08/30 09:37:54;;;;;;;18.77;14.57;;;18.90;99.90;;;;;;5004620;28;20042;-60
2021/08/30 09:40:23;;;;;;;20.25;14.10;;;18.80;99.90;;;;;;5007501;28;20121;-58
2021/08/30 09:42:52;;;;;;;20.15;14.02;;;18.90;99.90;;;;;;5008955;28;20476;-58
2021/08/30 09:45:20;;;;;;;21.58;14.18;;;19.00;99.90;;;;;;5008298;28;20021;-57
2021/08/30 09:47:50;;;;;;;19.63;15.73;;;19.10;99.90;;;;;;5007100;28;20024;-58
2021/08/30 09:50:16;;;;;;;18.30;13.63;;;19.50;99.90;;;;;;5008772;28;20496;-57
2021/08/30 09:52:42;;;;;;;19.27;13.38;;;19.90;99.90;;;;;;4992585;28;20508;-58
2021/08/30 09:55:08;;;;;;;14.65;12.38;;;20.50;99.90;;;;;;5008842;28;20034;-59
2021/08/30 09:57:36;;;;;;;14.55;11.43;;;20.90;99.90;;;;;;5005981;28;20048;-57
2021/08/30 10:00:04;;;;;;;17.90;11.57;;;21.50;99.90;;;;;;5008555;28;20026;-56
2021/08/30 10:02:31;;;;;;;15.95;11.55;;;21.90;99.90;;;;;;5006476;28;20083;-54
2021/08/30 10:05:03;;;;;;;16.70;11.10;;;21.90;99.90;;;;;;5008485;28;20029;-57
2021/08/30 10:07:29;;;;;;;14.52;11.35;;;22.50;99.90;;;;;;5008057;28;20064;-58
2021/08/30 10:09:56;;;;;;;13.63;11.20;;;22.60;99.90;;;;;;5009546;28;20057;-57
2021/08/30 10:12:22;;;;;;;15.40;10.93;;;22.60;99.90;;;;;;5009311;28;20034;-56
2021/08/30 10:14:48;;;;;;;15.70;11.82;;;22.70;99.90;;;;;;5007318;28;20021;-54
2021/08/30 10:17:17;;;;;;;12.63;10.25;;;22.40;99.90;;;;;;5004043;28;22462;-54
2021/08/30 10:19:43;;;;;;;17.48;10.48;;;22.00;99.90;;;;;;5006088;28;20041;-57
2021/08/30 10:22:18;;;;;;;12.35;10.35;;;21.70;99.90;;;;;;5007652;28;20646;-57
2021/08/30 10:24:44;;;;;;;17.23;10.63;;;21.50;99.90;;;;;;5007028;28;20105;-56
2021/08/30 10:27:12;;;;;;;12.82;10.30;;;21.60;99.90;;;;;;5009830;28;20037;-57
2021/08/30 10:29:40;;;;;;;13.18;10.80;;;21.40;99.90;;;;;;5011869;28;20060;-58
2021/08/30 10:32:08;;;;;;;17.65;10.52;;;21.00;99.90;;;;;;5012218;28;20489;-57
2021/08/30 10:34:36;;;;;;;13.32;11.18;;;20.70;99.90;;;;;;5009158;28;20034;-59
2021/08/30 10:37:03;;;;;;;13.10;10.18;;;20.70;99.90;;;;;;5010093;28;20108;-58
2021/08/30 10:39:39;;;;;;;13.73;10.88;;;20.60;99.90;;;;;;5011174;28;20033;-57
2021/08/30 10:42:04;;;;;;;13.00;10.32;;;20.50;99.90;;;;;;5000890;28;20030;-56
2021/08/30 10:44:31;;;;;;;13.98;10.60;;;20.50;99.90;;;;;;4993519;28;20647;-55
2021/08/30 10:47:00;;;;;;;13.35;9.95;;;20.10;99.90;;;;;;5009915;28;20022;-57
2021/08/30 10:49:28;;;;;;;15.15;11.65;;;20.10;99.90;;;;;;4995066;28;20049;-48
2021/08/30 10:52:16;;;;;;;12.45;9.63;;;19.80;99.90;;;;;;5008531;28;20033;-54
2021/08/30 10:54:57;;;;;;;17.27;10.30;;;19.60;99.90;;;;;;4988352;28;20042;-55
2021/08/30 10:57:34;;;;;;;12.57;9.80;;;19.50;99.90;;;;;;4992139;28;20033;-56
2021/08/30 11:00:00;;;;;;;14.15;10.05;;;19.30;99.90;;;;;;5009412;28;20028;-57
2021/08/30 11:02:37;;;;;;;16.27;11.32;;;19.30;99.90;;;;;;5012176;28;20424;-58
2021/08/30 11:05:03;;;;;;;15.00;10.13;;;19.10;99.90;;;;;;4980040;28;20033;-57
2021/08/30 11:07:28;;;;;;;17.00;10.30;;;19.10;99.90;;;;;;5011281;28;20136;-57
2021/08/30 11:09:54;;;;;;;14.15;10.48;;;19.30;99.90;;;;;;5011857;28;20022;-57
2021/08/30 11:12:20;;;;;;;13.25;10.18;;;19.50;99.90;;;;;;5012104;28;20018;-58
2021/08/30 11:14:55;;;;;;;12.90;9.63;;;19.80;99.90;;;;;;5005481;28;20017;-57
2021/08/30 11:17:29;;;;;;;12.35;10.07;;;20.10;99.90;;;;;;5010887;28;20026;-56
2021/08/30 11:19:55;;;;;;;;;;;20.70;99.90;;;;;;5009551;28;20030;-56
2021/08/30 11:22:21;;;;;;;14.60;10.35;;;21.00;99.90;;;;;;5006186;28;20491;-56
2021/08/30 11:24:46;;;;;;;12.80;9.88;;;21.20;99.90;;;;;;5012551;28;20034;-59
2021/08/30 11:27:15;;;;;;;21.50;11.45;;;21.20;99.90;;;;;;5007816;28;20101;-58
2021/08/30 11:29:46;;;;;;;13.43;9.50;;;21.40;99.90;;;;;;5011617;28;20030;-56
2021/08/30 11:32:14;;;;;;;13.23;10.30;;;21.50;99.90;;;;;;5009241;28;20018;-57
2021/08/30 11:34:40;;;;;;;12.88;9.23;;;21.40;99.90;;;;;;5009519;28;20077;-53
2021/08/30 11:37:10;;;;;;;16.20;11.32;;;21.00;99.90;;;;;;5012764;28;20040;-56
2021/08/30 11:39:38;;;;;;;16.25;9.90;;;20.70;99.90;;;;;;5010508;28;20050;-55
2021/08/30 11:42:07;;;;;;;17.17;10.50;;;20.60;99.90;;;;;;5011076;28;20128;-56
2021/08/30 11:44:35;;;;;;;16.92;11.25;;;20.40;99.90;;;;;;5012167;28;20030;-55
2021/08/30 11:47:03;;;;;;;18.08;10.90;;;20.00;99.90;;;;;;5011266;28;20021;-56
2021/08/30 11:49:31;;;;;;;16.60;10.32;;;20.00;99.90;;;;;;5010846;28;20026;-55
2021/08/30 11:52:00;;;;;;;15.70;10.93;;;19.90;99.90;;;;;;5012050;28;20022;-55
2021/08/30 11:54:38;;;;;;;14.57;10.65;;;19.70;99.90;;;;;;4992919;28;20117;-55
2021/08/30 11:57:13;;;;;;;14.20;11.30;;;19.70;99.90;;;;;;5006860;28;20026;-58
2021/08/30 11:59:47;;;;;;;13.48;9.90;;;19.30;99.90;;;;;;5004730;28;20029;-57
2021/08/30 12:02:15;;;;;;;14.85;11.43;;;19.40;99.90;;;;;;5007761;28;20507;-57
2021/08/30 12:04:41;;;;;;;16.15;10.73;;;19.50;99.90;;;;;;5005733;28;20042;-56
2021/08/30 12:07:17;;;;;;;13.80;10.85;;;19.70;99.90;;;;;;5012359;28;20029;-58
2021/08/30 12:09:51;;;;;;;23.45;11.50;;;20.10;99.90;;;;;;5004514;28;20033;-58
2021/08/30 12:12:22;;;;;;;18.00;11.90;;;20.40;99.90;;;;;;5009511;28;20025;-58
2021/08/30 12:14:55;;;;;;;18.10;10.80;;;20.60;99.90;;;;;;4995408;28;20160;-57
2021/08/30 12:17:22;;;;;;;14.70;11.20;;;20.90;99.90;;;;;;5008955;28;20480;-57
2021/08/30 12:19:54;;;;;;;15.05;10.32;;;21.00;99.90;;;;;;5010650;28;20026;-57
2021/08/30 12:22:28;;;;;;;15.80;10.30;;;21.30;99.90;;;;;;5008617;28;20489;-57
2021/08/30 12:25:06;;;;;;;17.98;10.73;;;21.30;99.90;;;;;;5001584;28;20042;-56
2021/08/30 12:27:34;;;;;;;14.77;10.77;;;21.60;99.90;;;;;;5010778;28;21849;-57
2021/08/30 12:30:12;;;;;;;14.93;9.68;;;21.60;99.90;;;;;;5008082;28;20034;-58
2021/08/30 12:33:04;;;;;;;10.68;8.93;;;21.70;99.90;;;;;;5007037;28;20067;-57
2021/08/30 12:35:31;;;;;;;13.55;8.95;;;22.00;99.90;;;;;;5009563;28;20022;-58